Time;durP1;ratioP1;P1;durP2;ratioP2;P2;SDS_P1;SDS_P2;PMS_P1;PMS_P2;Temp;Humidity;BMP_temperature;BMP_pressure;BME280_temperature;BME280_humidity;BME280_pressure;Samples;Min_cycle;Max_cycle;Signal;HPM_P1;HPM_P2
2023/05/13 00:02:14;;;;;;;2.38;2.15;;;11.00;99.90;;;;;;5112535;28;20205;-69
2023/05/13 00:04:41;;;;;;;2.80;2.60;;;11.00;99.90;;;;;;5112137;28;20239;-69
2023/05/13 00:07:08;;;;;;;3.47;2.80;;;11.00;99.90;;;;;;5112204;28;20676;-69
2023/05/13 00:09:36;;;;;;;2.88;2.30;;;11.00;99.90;;;;;;5112592;28;20286;-69
2023/05/13 00:12:02;;;;;;;2.78;2.42;;;11.00;99.90;;;;;;5110221;28;20742;-70
2023/05/13 00:14:30;;;;;;;2.63;2.42;;;11.00;99.90;;;;;;5112549;28;20226;-70
2023/05/13 00:16:58;;;;;;;2.80;2.45;;;11.00;99.90;;;;;;5112369;28;20223;-69
2023/05/13 00:19:25;;;;;;;3.10;2.80;;;11.00;99.90;;;;;;5112613;28;20574;-69
2023/05/13 00:21:51;;;;;;;2.85;2.63;;;11.00;99.90;;;;;;5112860;28;20214;-69
2023/05/13 00:24:19;;;;;;;3.72;2.75;;;11.00;99.90;;;;;;5104160;28;20699;-70
2023/05/13 00:26:45;;;;;;;2.67;2.47;;;11.00;99.90;;;;;;5112681;28;20598;-69
2023/05/13 00:29:12;;;;;;;2.70;2.50;;;11.00;99.90;;;;;;5112551;28;20656;-69
2023/05/13 00:31:40;;;;;;;2.63;2.42;;;11.00;99.90;;;;;;5112664;28;20552;-69
2023/05/13 00:34:07;;;;;;;3.20;2.88;;;10.90;99.90;;;;;;5112066;28;20286;-69
2023/05/13 00:36:34;;;;;;;4.20;2.75;;;10.90;99.90;;;;;;5112631;28;20223;-69
2023/05/13 00:39:00;;;;;;;3.00;2.70;;;10.90;99.90;;;;;;5112356;28;20229;-69
2023/05/13 00:41:27;;;;;;;4.00;2.65;;;10.90;99.90;;;;;;5112644;28;20210;-69
2023/05/13 00:43:55;;;;;;;3.17;2.88;;;10.80;99.90;;;;;;5112028;28;20632;-69
2023/05/13 00:46:22;;;;;;;2.58;2.38;;;10.80;99.90;;;;;;5112028;28;20279;-69
2023/05/13 00:48:50;;;;;;;2.60;2.40;;;10.80;99.90;;;;;;5112020;28;20669;-69
2023/05/13 00:51:18;;;;;;;2.70;2.50;;;10.80;99.90;;;;;;5111917;28;20191;-69
2023/05/13 00:53:46;;;;;;;3.08;2.63;;;10.80;99.90;;;;;;5111926;28;20206;-69
2023/05/13 00:56:13;;;;;;;2.38;1.90;;;10.70;99.90;;;;;;5111831;28;20219;-69
2023/05/13 00:58:40;;;;;;;2.55;2.33;;;10.80;99.90;;;;;;5112394;28;20199;-69
2023/05/13 01:01:14;;;;;;;3.40;3.10;;;10.80;99.90;;;;;;5111161;28;20195;-69
2023/05/13 01:03:48;;;;;;;2.55;2.35;;;10.80;99.90;;;;;;5112042;28;20201;-69
2023/05/13 01:06:20;;;;;;;3.05;2.75;;;10.80;99.90;;;;;;5111484;28;20227;-69
2023/05/13 01:08:56;;;;;;;3.03;2.75;;;10.80;99.90;;;;;;5111814;28;20206;-69
2023/05/13 01:11:28;;;;;;;2.88;2.53;;;10.80;99.90;;;;;;5111812;28;20206;-69
2023/05/13 01:14:06;;;;;;;3.05;2.75;;;10.80;99.90;;;;;;5111647;28;20233;-69
2023/05/13 01:16:39;;;;;;;2.72;2.53;;;10.80;99.90;;;;;;5105156;28;20271;-69
2023/05/13 01:19:13;;;;;;;4.05;3.00;;;10.80;99.90;;;;;;5111362;28;20210;-69
2023/05/13 01:21:41;;;;;;;3.17;2.88;;;10.80;99.90;;;;;;5111732;28;20586;-69
2023/05/13 01:24:08;;;;;;;2.92;2.70;;;10.80;99.90;;;;;;5110693;28;20603;-69
2023/05/13 01:26:35;;;;;;;4.70;3.28;;;10.80;99.90;;;;;;5111643;28;20261;-69
2023/05/13 01:29:01;;;;;;;2.78;2.53;;;10.70;99.90;;;;;;5111085;28;20199;-69
2023/05/13 01:31:29;;;;;;;2.78;2.58;;;10.80;99.90;;;;;;5111086;28;20199;-69
2023/05/13 01:33:57;;;;;;;2.78;2.58;;;10.80;99.90;;;;;;5111087;28;20206;-69
2023/05/13 01:36:24;;;;;;;2.85;2.65;;;10.70;99.90;;;;;;5111389;28;20885;-69
2023/05/13 01:38:53;;;;;;;2.40;2.20;;;10.80;99.90;;;;;;5111253;28;20207;-69
2023/05/13 01:41:20;;;;;;;2.75;2.45;;;10.80;99.90;;;;;;5110910;28;20195;-69
2023/05/13 01:43:46;;;;;;;2.88;2.58;;;10.70;99.90;;;;;;5111013;28;20218;-69
2023/05/13 01:46:13;;;;;;;2.80;2.60;;;10.80;99.90;;;;;;5110972;28;20214;-70
2023/05/13 01:48:40;;;;;;;2.65;2.45;;;10.80;99.90;;;;;;5111271;28;20591;-69
2023/05/13 01:51:07;;;;;;;2.70;2.50;;;10.80;99.90;;;;;;5110555;28;20551;-69
2023/05/13 01:53:33;;;;;;;3.78;2.85;;;10.70;99.90;;;;;;5110694;28;20199;-69
2023/05/13 01:56:01;;;;;;;2.92;2.72;;;10.60;99.90;;;;;;5110913;28;20267;-69
2023/05/13 01:58:28;;;;;;;3.20;2.90;;;10.60;99.90;;;;;;5110960;28;20252;-70
2023/05/13 02:00:54;;;;;;;2.90;2.70;;;10.50;99.90;;;;;;5110709;28;20206;-69
2023/05/13 02:03:21;;;;;;;3.47;3.17;;;10.40;99.90;;;;;;5110508;28;20202;-69
2023/05/13 02:05:48;;;;;;;2.58;2.38;;;10.40;99.90;;;;;;5110342;28;20203;-69
2023/05/13 02:08:15;;;;;;;3.45;3.15;;;10.30;99.90;;;;;;5110520;28;20301;-69
2023/05/13 02:10:41;;;;;;;2.90;2.60;;;10.30;99.90;;;;;;5110589;28;20199;-69
2023/05/13 02:13:09;;;;;;;2.83;2.63;;;10.30;99.90;;;;;;5110400;28;20202;-69
2023/05/13 02:15:36;;;;;;;3.10;2.80;;;10.30;99.90;;;;;;5110419;28;20203;-69
2023/05/13 02:18:03;;;;;;;4.03;3.05;;;10.20;99.90;;;;;;5110655;28;20199;-69
2023/05/13 02:20:30;;;;;;;3.00;2.70;;;10.20;99.90;;;;;;5110514;28;20214;-69
2023/05/13 02:22:56;;;;;;;3.00;2.65;;;10.20;99.90;;;;;;5110632;28;20229;-69
2023/05/13 02:25:23;;;;;;;2.65;2.45;;;10.20;99.90;;;;;;5109765;28;20206;-69
2023/05/13 02:27:50;;;;;;;3.20;2.90;;;10.20;99.90;;;;;;5110562;28;20223;-69
2023/05/13 02:30:18;;;;;;;2.92;2.60;;;10.20;99.90;;;;;;5110092;28;20267;-69
2023/05/13 02:32:45;;;;;;;3.10;2.80;;;10.10;99.90;;;;;;5110759;28;20200;-69
2023/05/13 02:35:11;;;;;;;4.13;2.80;;;10.10;99.90;;;;;;5109124;28;20209;-69
2023/05/13 02:37:38;;;;;;;2.88;2.55;;;10.10;99.90;;;;;;5110326;28;20223;-69
2023/05/13 02:40:06;;;;;;;2.45;2.10;;;10.10;99.90;;;;;;5110011;28;20692;-69
2023/05/13 02:42:32;;;;;;;3.10;2.70;;;10.10;99.90;;;;;;5110498;28;20199;-69
2023/05/13 02:44:59;;;;;;;3.65;2.70;;;10.10;99.90;;;;;;5110039;28;20251;-69
2023/05/13 02:47:27;;;;;;;3.10;2.85;;;10.10;99.90;;;;;;5101975;28;20223;-69
2023/05/13 02:49:56;;;;;;;3.67;3.15;;;10.10;99.90;;;;;;5110317;28;20369;-69
2023/05/13 02:52:22;;;;;;;2.92;2.60;;;10.10;99.90;;;;;;5109997;28;20206;-69
2023/05/13 02:54:49;;;;;;;3.03;2.72;;;10.10;99.90;;;;;;5109845;28;20203;-69
2023/05/13 02:57:16;;;;;;;2.95;2.60;;;10.00;99.90;;;;;;5109995;28;20589;-69
2023/05/13 02:59:42;;;;;;;3.45;2.72;;;10.00;99.90;;;;;;5110296;28;20256;-69
2023/05/13 03:02:09;;;;;;;2.80;2.53;;;10.00;99.90;;;;;;5109817;28;20202;-69
2023/05/13 03:04:37;;;;;;;2.85;2.20;;;10.00;99.90;;;;;;5109878;28;20203;-69
2023/05/13 03:07:04;;;;;;;2.40;2.20;;;10.00;99.90;;;;;;5109940;28;20229;-69
2023/05/13 03:09:33;;;;;;;2.70;2.50;;;10.00;99.90;;;;;;5110049;28;20218;-70
2023/05/13 03:12:00;;;;;;;2.50;2.30;;;10.00;99.90;;;;;;5110176;28;20210;-69
2023/05/13 03:14:27;;;;;;;2.80;2.53;;;10.00;99.90;;;;;;5101422;28;20577;-69
2023/05/13 03:16:53;;;;;;;2.72;2.30;;;9.90;99.90;;;;;;5110247;28;20223;-69
2023/05/13 03:19:20;;;;;;;3.05;2.38;;;9.90;99.90;;;;;;5109660;28;20187;-69
2023/05/13 03:21:48;;;;;;;3.28;2.70;;;9.90;99.90;;;;;;5110015;28;20199;-69
2023/05/13 03:24:15;;;;;;;3.00;2.70;;;9.90;99.90;;;;;;5109514;28;20191;-70
2023/05/13 03:26:41;;;;;;;2.35;2.15;;;9.90;99.90;;;;;;5110000;28;20294;-70
2023/05/13 03:29:08;;;;;;;2.83;2.58;;;9.90;99.90;;;;;;5109409;28;20724;-69
2023/05/13 03:31:35;;;;;;;3.28;2.97;;;9.90;99.90;;;;;;5109792;28;20229;-70
2023/05/13 03:34:01;;;;;;;3.03;2.72;;;10.00;99.90;;;;;;5109835;28;20218;-69
2023/05/13 03:36:28;;;;;;;2.10;1.90;;;9.90;99.90;;;;;;5101509;28;20240;-69
2023/05/13 03:38:56;;;;;;;2.70;2.50;;;9.90;99.90;;;;;;5109637;28;20191;-69
2023/05/13 03:41:23;;;;;;;3.25;2.85;;;9.90;99.90;;;;;;5109328;28;20203;-70
2023/05/13 03:43:50;;;;;;;2.50;2.30;;;9.90;99.90;;;;;;5109634;28;20700;-70
2023/05/13 03:46:16;;;;;;;3.63;2.58;;;9.90;99.90;;;;;;5111423;28;20225;-70
2023/05/13 03:48:43;;;;;;;3.28;2.92;;;9.90;99.90;;;;;;5113597;28;20215;-70
2023/05/13 03:51:10;;;;;;;2.40;2.20;;;9.90;99.90;;;;;;5112876;28;20191;-70
2023/05/13 03:53:36;;;;;;;3.63;2.10;;;9.90;99.90;;;;;;5113094;28;20203;-69
2023/05/13 03:56:05;;;;;;;3.65;2.75;;;9.80;99.90;;;;;;5113215;28;20222;-70
2023/05/13 03:58:32;;;;;;;2.90;2.47;;;9.90;99.90;;;;;;5113298;28;20194;-69
2023/05/13 04:00:58;;;;;;;8.52;2.83;;;9.80;99.90;;;;;;5113095;28;20200;-69
2023/05/13 04:03:25;;;;;;;3.00;2.70;;;9.80;99.90;;;;;;5112918;28;20583;-69
2023/05/13 04:05:52;;;;;;;2.50;2.30;;;9.80;99.90;;;;;;5112801;28;20622;-69
2023/05/13 04:08:19;;;;;;;2.58;2.38;;;9.80;99.90;;;;;;5112620;28;20226;-70
2023/05/13 04:10:45;;;;;;;2.83;2.30;;;9.80;99.90;;;;;;5112993;28;20286;-69
2023/05/13 04:13:13;;;;;;;2.90;2.50;;;9.80;99.90;;;;;;5112805;28;20195;-69
2023/05/13 04:15:40;;;;;;;3.45;2.47;;;9.70;99.90;;;;;;5112590;28;20199;-69
2023/05/13 04:18:07;;;;;;;4.38;2.55;;;9.80;99.90;;;;;;5112695;28;20199;-70
2023/05/13 04:20:33;;;;;;;4.32;2.85;;;9.80;99.90;;;;;;5112564;28;20562;-69
2023/05/13 04:23:00;;;;;;;3.10;2.58;;;9.80;99.90;;;;;;5112940;28;20567;-69
2023/05/13 04:25:27;;;;;;;3.63;2.63;;;9.80;99.90;;;;;;5112085;28;20233;-69
2023/05/13 04:27:54;;;;;;;3.80;2.50;;;9.80;99.90;;;;;;5112558;28;20230;-69
2023/05/13 04:30:22;;;;;;;2.35;2.13;;;9.70;99.90;;;;;;5112282;28;20191;-69
2023/05/13 04:32:48;;;;;;;2.65;2.05;;;9.70;99.90;;;;;;5112767;28;20234;-69
2023/05/13 04:35:16;;;;;;;2.60;2.30;;;9.80;99.90;;;;;;5112055;28;20205;-69
2023/05/13 04:37:43;;;;;;;3.38;2.97;;;9.80;99.90;;;;;;5112438;28;20217;-69
2023/05/13 04:40:11;;;;;;;2.53;2.33;;;9.80;99.90;;;;;;5112085;28;20191;-69
2023/05/13 04:42:37;;;;;;;2.83;2.22;;;9.80;99.90;;;;;;5112390;28;20596;-69
2023/05/13 04:45:05;;;;;;;2.60;2.40;;;9.80;99.90;;;;;;5112124;28;20677;-69
2023/05/13 04:47:34;;;;;;;4.40;3.13;;;9.80;99.90;;;;;;5111938;28;20222;-68
2023/05/13 04:50:00;;;;;;;2.60;2.30;;;9.80;99.90;;;;;;5112105;28;20669;-67
2023/05/13 04:52:27;;;;;;;3.40;3.00;;;9.80;99.90;;;;;;5111833;28;20206;-68
2023/05/13 04:54:54;;;;;;;2.38;2.08;;;9.80;99.90;;;;;;5111790;28;20715;-67
2023/05/13 04:57:20;;;;;;;3.10;2.88;;;9.80;99.90;;;;;;5110985;28;20752;-68
2023/05/13 04:59:47;;;;;;;2.10;2.00;;;9.80;99.90;;;;;;5112081;28;20218;-68
2023/05/13 05:02:14;;;;;;;3.95;2.10;;;9.90;99.90;;;;;;5111885;28;20200;-68
2023/05/13 05:07:39;;;;;;;2.75;2.55;;;9.90;99.90;;;;;;5025906;28;20761;-70
2023/05/13 05:10:06;;;;;;;2.63;2.28;;;9.90;99.90;;;;;;5031483;28;20237;-70
2023/05/13 05:12:33;;;;;;;3.20;2.30;;;9.90;99.90;;;;;;5031236;28;20198;-70
2023/05/13 05:15:00;;;;;;;3.05;2.80;;;9.90;99.90;;;;;;5031262;28;20571;-70
2023/05/13 05:17:31;;;;;;;2.88;2.58;;;9.90;99.90;;;;;;5023110;28;20221;-70
2023/05/13 05:19:58;;;;;;;2.80;2.60;;;9.90;99.90;;;;;;5031434;28;20286;-70
2023/05/13 05:22:25;;;;;;;2.88;2.47;;;10.00;99.90;;;;;;5031204;28;20673;-70
2023/05/13 05:24:53;;;;;;;2.65;2.25;;;10.00;99.90;;;;;;5030854;28;20201;-70
2023/05/13 05:27:20;;;;;;;2.95;2.65;;;10.00;99.90;;;;;;5031120;28;20237;-70
2023/05/13 05:29:46;;;;;;;2.95;2.50;;;10.00;99.90;;;;;;5030844;28;20623;-70
2023/05/13 05:32:13;;;;;;;4.28;2.88;;;10.00;99.90;;;;;;5030965;28;20669;-70
2023/05/13 05:34:40;;;;;;;2.70;2.47;;;10.00;99.90;;;;;;5030730;28;20208;-70
2023/05/13 05:37:06;;;;;;;2.75;2.33;;;10.00;99.90;;;;;;5031168;28;20214;-70
2023/05/13 05:39:34;;;;;;;4.43;2.63;;;10.00;99.90;;;;;;5030609;28;20539;-70
2023/05/13 05:42:02;;;;;;;2.75;2.55;;;10.10;99.90;;;;;;5031058;28;20200;-70
2023/05/13 05:44:28;;;;;;;3.17;2.88;;;10.10;99.90;;;;;;5029983;28;20224;-70
2023/05/13 05:46:55;;;;;;;2.78;2.58;;;10.10;99.90;;;;;;5029813;28;20274;-70
2023/05/13 05:49:22;;;;;;;2.60;2.40;;;10.10;99.90;;;;;;5030343;28;20218;-69
2023/05/13 05:51:48;;;;;;;4.95;2.85;;;10.10;99.90;;;;;;5030351;28;20199;-69
2023/05/13 05:54:15;;;;;;;3.25;2.90;;;10.10;99.90;;;;;;5029378;28;20456;-69
2023/05/13 05:56:42;;;;;;;3.08;2.42;;;10.20;99.90;;;;;;5030527;28;20484;-70
2023/05/13 05:59:10;;;;;;;3.58;2.55;;;10.20;99.90;;;;;;5030765;28;20201;-69
2023/05/13 06:01:36;;;;;;;3.63;2.92;;;10.30;99.90;;;;;;5030258;28;20252;-69
2023/05/13 06:04:04;;;;;;;3.58;2.78;;;10.30;99.90;;;;;;5030280;28;20198;-69
2023/05/13 06:06:31;;;;;;;3.55;2.75;;;10.30;99.90;;;;;;5040404;28;20318;-69
2023/05/13 06:08:57;;;;;;;3.88;3.53;;;10.30;99.90;;;;;;5053594;28;20666;-68
2023/05/13 06:11:24;;;;;;;2.50;2.30;;;10.30;99.90;;;;;;5050419;28;20557;-68
2023/05/13 06:13:51;;;;;;;4.88;2.70;;;10.30;99.90;;;;;;5049955;28;20208;-68
2023/05/13 06:16:19;;;;;;;3.00;2.67;;;10.40;99.90;;;;;;5050158;28;20637;-68
2023/05/13 06:18:45;;;;;;;2.83;2.60;;;10.50;99.90;;;;;;5050475;28;20251;-68
2023/05/13 06:21:13;;;;;;;3.20;2.85;;;10.50;99.90;;;;;;5050522;28;20704;-69
2023/05/13 06:23:39;;;;;;;2.55;2.35;;;10.60;99.90;;;;;;5041750;28;20201;-69
2023/05/13 06:26:06;;;;;;;2.70;2.50;;;10.60;99.90;;;;;;5050293;28;20224;-69
2023/05/13 06:28:33;;;;;;;3.10;2.80;;;10.60;99.90;;;;;;5049774;28;20216;-69
2023/05/13 06:30:59;;;;;;;3.03;2.55;;;10.70;99.90;;;;;;5049767;28;20197;-69
2023/05/13 06:33:28;;;;;;;3.10;2.53;;;10.60;99.90;;;;;;5050012;28;20208;-69
2023/05/13 06:35:54;;;;;;;3.85;2.75;;;10.60;99.90;;;;;;5049652;28;20708;-69
2023/05/13 06:38:21;;;;;;;3.33;2.70;;;10.60;99.90;;;;;;5049888;28;20809;-69
2023/05/13 06:40:47;;;;;;;4.53;3.83;;;10.60;99.90;;;;;;5049822;28;20596;-69
2023/05/13 06:43:15;;;;;;;3.47;3.17;;;10.60;99.90;;;;;;5050123;28;20575;-69
2023/05/13 06:45:42;;;;;;;3.55;3.25;;;10.60;99.90;;;;;;5049652;28;20216;-68
2023/05/13 06:48:08;;;;;;;3.35;3.05;;;10.70;99.90;;;;;;5049870;28;20193;-69
2023/05/13 06:50:36;;;;;;;3.28;2.97;;;10.80;99.90;;;;;;5049268;28;20205;-69
2023/05/13 06:53:03;;;;;;;4.65;3.20;;;10.90;99.90;;;;;;5049955;28;20200;-68
2023/05/13 06:55:30;;;;;;;3.10;2.85;;;11.00;99.90;;;;;;5049508;28;20204;-70
2023/05/13 06:57:56;;;;;;;3.15;2.85;;;11.00;99.90;;;;;;5050144;28;20232;-69
2023/05/13 07:00:23;;;;;;;5.20;3.25;;;11.10;99.90;;;;;;5049707;28;20197;-69
2023/05/13 07:02:50;;;;;;;2.90;2.70;;;11.20;99.90;;;;;;5049835;28;20197;-69
2023/05/13 07:05:17;;;;;;;3.70;3.22;;;11.30;99.90;;;;;;5048731;28;20197;-69
2023/05/13 07:07:45;;;;;;;4.20;3.42;;;11.50;99.90;;;;;;5049765;28;20225;-69
2023/05/13 07:10:12;;;;;;;3.30;3.00;;;11.60;99.90;;;;;;5049814;28;20221;-69
2023/05/13 07:12:38;;;;;;;3.05;2.75;;;11.70;99.90;;;;;;5049737;28;20197;-69
2023/05/13 07:15:07;;;;;;;3.55;3.15;;;11.80;99.90;;;;;;5049750;28;20292;-70
2023/05/13 07:17:34;;;;;;;3.53;3.20;;;11.90;99.90;;;;;;5049924;28;20572;-70
2023/05/13 07:20:00;;;;;;;3.22;2.92;;;11.90;99.90;;;;;;5049528;28;20566;-69
2023/05/13 07:22:27;;;;;;;3.75;3.40;;;12.00;99.90;;;;;;5052972;28;20201;-69
2023/05/13 07:24:56;;;;;;;3.33;3.03;;;12.10;99.90;;;;;;5053819;28;20228;-69
2023/05/13 07:27:23;;;;;;;3.80;3.30;;;12.10;99.90;;;;;;5052876;28;20597;-69
2023/05/13 07:29:50;;;;;;;3.08;2.80;;;12.20;99.90;;;;;;5053434;28;20271;-69
2023/05/13 07:32:17;;;;;;;3.80;3.30;;;12.30;99.90;;;;;;5053596;28;20196;-70
2023/05/13 07:34:43;;;;;;;3.50;3.20;;;12.40;99.90;;;;;;5044887;28;20201;-69
2023/05/13 07:37:10;;;;;;;3.78;3.28;;;12.50;99.90;;;;;;5053033;28;20271;-69
2023/05/13 07:39:37;;;;;;;3.65;3.28;;;12.60;99.90;;;;;;5047812;28;20664;-70
2023/05/13 07:42:06;;;;;;;4.13;3.50;;;12.70;99.90;;;;;;5046017;28;20247;-69
2023/05/13 07:44:33;;;;;;;3.20;2.90;;;12.70;99.90;;;;;;5050431;28;20460;-70
2023/05/13 07:47:01;;;;;;;4.67;3.17;;;13.00;99.90;;;;;;5034007;28;20582;-69
2023/05/13 07:49:28;;;;;;;3.40;2.97;;;13.10;99.90;;;;;;5067380;28;20475;-69
2023/05/13 07:51:56;;;;;;;3.23;2.93;;;13.30;99.90;;;;;;5053139;28;20551;-69
2023/05/13 07:54:23;;;;;;;4.40;3.03;;;13.50;99.90;;;;;;5052745;28;20493;-69
2023/05/13 07:56:50;;;;;;;4.00;3.40;;;13.50;99.90;;;;;;5055106;28;20483;-70
2023/05/13 07:59:19;;;;;;;3.63;3.33;;;13.50;99.90;;;;;;5054801;28;20447;-70
2023/05/13 08:01:47;;;;;;;3.10;2.80;;;13.50;99.90;;;;;;5045304;28;20495;-69
2023/05/13 08:04:14;;;;;;;5.10;2.90;;;13.40;99.90;;;;;;5052862;28;20554;-69
2023/05/13 08:06:41;;;;;;;3.83;3.33;;;13.30;99.90;;;;;;5052467;28;20494;-69
2023/05/13 08:09:11;;;;;;;3.57;3.27;;;13.30;99.90;;;;;;5053374;28;20505;-69
2023/05/13 08:11:38;;;;;;;3.77;3.20;;;13.40;99.90;;;;;;5053401;28;20455;-69
2023/05/13 08:14:06;;;;;;;2.93;2.73;;;13.50;99.90;;;;;;5054303;28;20510;-69
2023/05/13 08:16:36;;;;;;;3.90;3.60;;;13.70;99.90;;;;;;5052554;28;20494;-69
2023/05/13 08:19:04;;;;;;;3.40;3.10;;;13.70;99.90;;;;;;5053941;28;20509;-70
2023/05/13 08:21:31;;;;;;;2.90;2.70;;;13.80;99.90;;;;;;5052786;28;20925;-69
2023/05/13 08:23:58;;;;;;;4.47;3.00;;;13.50;99.90;;;;;;5052685;28;20462;-69
2023/05/13 08:26:25;;;;;;;4.40;3.40;;;13.30;99.90;;;;;;5052202;28;20486;-69
2023/05/13 08:28:52;;;;;;;4.03;3.30;;;13.20;99.90;;;;;;5052425;28;20459;-69
2023/05/13 08:31:19;;;;;;;3.83;3.47;;;13.10;99.90;;;;;;5051758;28;20466;-70
2023/05/13 08:33:47;;;;;;;2.53;2.33;;;13.00;99.90;;;;;;5051350;28;20482;-69
2023/05/13 08:36:14;;;;;;;3.40;2.80;;;12.90;99.90;;;;;;5052547;28;20478;-70
2023/05/13 08:38:42;;;;;;;3.50;3.07;;;12.90;99.90;;;;;;5051561;28;20510;-69
2023/05/13 08:41:12;;;;;;;3.40;2.67;;;12.90;99.90;;;;;;5050808;28;20477;-70
2023/05/13 08:43:39;;;;;;;3.67;3.03;;;12.90;99.90;;;;;;5050766;28;20964;-69
2023/05/13 08:46:10;;;;;;;5.40;2.90;;;12.90;99.90;;;;;;5051225;28;20534;-69
2023/05/13 08:48:38;;;;;;;3.17;2.90;;;12.90;99.90;;;;;;5051458;28;20842;-69
2023/05/13 08:51:06;;;;;;;3.17;2.50;;;12.80;99.90;;;;;;5051178;28;20498;-69
2023/05/13 08:53:34;;;;;;;6.87;4.10;;;12.70;99.90;;;;;;5050441;28;20529;-68
2023/05/13 08:56:01;;;;;;;3.27;2.87;;;12.50;99.90;;;;;;5051116;28;20483;-69
2023/05/13 08:58:28;;;;;;;3.00;2.67;;;12.50;99.90;;;;;;5051157;28;20517;-69
2023/05/13 09:00:55;;;;;;;3.25;2.95;;;12.50;99.90;;;;;;5051028;28;20456;-69
2023/05/13 09:03:22;;;;;;;3.77;3.10;;;12.40;99.90;;;;;;5048050;28;20201;-69
2023/05/13 09:05:49;;;;;;;4.90;3.83;;;12.50;99.90;;;;;;5043145;28;20474;-69
2023/05/13 09:08:17;;;;;;;5.17;3.60;;;12.40;99.90;;;;;;5031867;28;20456;-69
2023/05/13 09:10:44;;;;;;;2.90;2.60;;;12.40;99.90;;;;;;5036273;28;20991;-69
2023/05/13 09:13:12;;;;;;;4.20;3.43;;;12.50;99.90;;;;;;5036127;28;20209;-69
2023/05/13 09:15:41;;;;;;;3.50;3.20;;;12.50;99.90;;;;;;5027447;28;20507;-69
2023/05/13 09:18:08;;;;;;;4.40;3.50;;;12.50;99.90;;;;;;5038260;28;20460;-70
2023/05/13 09:20:35;;;;;;;5.07;3.17;;;12.50;99.90;;;;;;5037401;28;20209;-69
2023/05/13 09:23:04;;;;;;;3.47;3.00;;;12.60;99.90;;;;;;5029439;28;20197;-70
2023/05/13 09:25:32;;;;;;;3.67;3.37;;;12.60;99.90;;;;;;5029298;28;20201;-69
2023/05/13 09:28:00;;;;;;;2.67;2.47;;;12.60;99.90;;;;;;5030466;28;20518;-69
2023/05/13 09:30:28;;;;;;;3.53;3.23;;;12.60;99.90;;;;;;5024553;28;20537;-69
2023/05/13 09:33:07;;;;;;;2.50;2.30;;;12.70;99.90;;;;;;5029306;28;20479;-69
2023/05/13 09:35:34;;;;;;;3.40;3.07;;;12.70;99.90;;;;;;5028907;28;20504;-69
2023/05/13 09:38:01;;;;;;;3.17;2.90;;;12.60;99.90;;;;;;5030091;28;20476;-69
2023/05/13 09:40:28;;;;;;;5.43;4.25;;;12.60;99.90;;;;;;5030461;28;20966;-69
2023/05/13 09:42:58;;;;;;;4.63;2.90;;;12.50;99.90;;;;;;5030601;28;20198;-69
2023/05/13 09:45:26;;;;;;;7.10;3.03;;;12.50;99.90;;;;;;5030007;28;20468;-69
2023/05/13 09:47:55;;;;;;;3.30;2.90;;;12.50;99.90;;;;;;5028974;28;20484;-69
2023/05/13 09:50:22;;;;;;;4.70;2.73;;;12.60;99.90;;;;;;5021872;28;20222;-70
2023/05/13 09:52:49;;;;;;;3.20;2.90;;;12.70;99.90;;;;;;5016575;28;20460;-70
2023/05/13 09:55:16;;;;;;;3.07;2.57;;;13.00;99.90;;;;;;5029757;28;21010;-70
2023/05/13 09:57:43;;;;;;;5.40;3.10;;;13.30;99.90;;;;;;5029710;28;20480;-70
2023/05/13 10:00:12;;;;;;;3.00;2.70;;;13.50;99.90;;;;;;5030071;28;20952;-70
2023/05/13 10:02:39;;;;;;;3.33;3.03;;;13.50;99.90;;;;;;5029755;28;20981;-69
2023/05/13 10:05:09;;;;;;;2.73;2.53;;;13.50;99.90;;;;;;5029966;28;20967;-70
2023/05/13 10:07:36;;;;;;;2.40;2.20;;;13.60;99.90;;;;;;5027266;28;20489;-70
2023/05/13 10:10:04;;;;;;;3.40;3.10;;;13.60;99.90;;;;;;5049647;28;20482;-70
2023/05/13 10:12:31;;;;;;;3.90;2.50;;;13.50;99.90;;;;;;5049342;28;20482;-70
2023/05/13 10:15:01;;;;;;;4.90;2.40;;;13.50;99.90;;;;;;5049772;28;20862;-70
2023/05/13 10:17:30;;;;;;;2.70;2.50;;;13.40;99.90;;;;;;5049155;28;21095;-70
2023/05/13 10:19:57;;;;;;;2.50;2.30;;;13.50;99.90;;;;;;5049907;28;20464;-70
2023/05/13 10:22:29;;;;;;;3.70;2.80;;;13.40;99.90;;;;;;5040057;28;20467;-68
2023/05/13 10:24:58;;;;;;;3.07;2.77;;;13.40;99.90;;;;;;5049233;28;20916;-68
2023/05/13 10:27:28;;;;;;;2.57;2.37;;;13.20;99.90;;;;;;5049394;28;20479;-68
2023/05/13 10:29:55;;;;;;;2.57;2.30;;;13.40;99.90;;;;;;5049751;28;20566;-69
2023/05/13 10:32:23;;;;;;;2.60;2.23;;;13.80;99.90;;;;;;5049334;28;20958;-69
2023/05/13 10:34:54;;;;;;;2.50;2.23;;;14.10;99.90;;;;;;5049203;28;20468;-69
2023/05/13 10:38:03;;;;;;;2.17;1.97;;;14.50;99.90;;;;;;5049258;28;20881;-69
2023/05/13 10:40:48;;;;;;;4.13;2.70;;;14.80;99.90;;;;;;5010660;28;20987;-68
2023/05/13 10:43:18;;;;;;;2.10;1.90;;;14.90;99.90;;;;;;5047334;28;20456;-69
2023/05/13 10:45:47;;;;;;;2.23;2.03;;;14.90;99.90;;;;;;5042378;28;20512;-68
2023/05/13 10:48:15;;;;;;;2.27;2.07;;;14.80;99.90;;;;;;5027346;28;20912;-69
2023/05/13 10:50:54;;;;;;;2.57;2.37;;;14.50;99.90;;;;;;5037576;28;20489;-69
2023/05/13 10:53:24;;;;;;;2.90;2.33;;;14.40;99.90;;;;;;5040207;28;20470;-68
2023/05/13 10:55:56;;;;;;;2.40;2.20;;;14.30;99.90;;;;;;5050999;28;20529;-68
2023/05/13 10:58:30;;;;;;;2.03;1.83;;;14.50;99.90;;;;;;5039396;28;20530;-68
2023/05/13 11:01:16;;;;;;;2.33;1.90;;;14.60;99.90;;;;;;5038060;28;20501;-68
2023/05/13 11:03:52;;;;;;;2.00;1.80;;;14.60;99.90;;;;;;5046209;28;20474;-68
2023/05/13 11:06:22;;;;;;;2.13;1.93;;;14.60;99.90;;;;;;5053890;28;20970;-68
2023/05/13 11:08:50;;;;;;;1.93;1.60;;;14.60;99.90;;;;;;5052892;28;20459;-68
2023/05/13 11:11:19;;;;;;;2.07;1.87;;;14.40;99.90;;;;;;5053630;28;20822;-68
2023/05/13 11:13:46;;;;;;;2.57;2.37;;;14.20;99.90;;;;;;5043229;28;20507;-68
2023/05/13 11:16:13;;;;;;;2.40;2.20;;;13.90;99.90;;;;;;5014255;28;20493;-68
2023/05/13 11:18:40;;;;;;;2.67;2.27;;;13.70;99.90;;;;;;5022304;28;20576;-68
2023/05/13 11:21:08;;;;;;;3.70;3.00;;;13.70;99.90;;;;;;5013105;28;20476;-68
2023/05/13 11:23:51;;;;;;;3.57;3.27;;;13.60;99.90;;;;;;5028115;28;20468;-68
2023/05/13 11:26:20;;;;;;;3.43;3.13;;;13.50;99.90;;;;;;5033436;28;20567;-68
2023/05/13 11:29:04;;;;;;;4.47;4.07;;;13.50;99.90;;;;;;5032101;28;20472;-68
2023/05/13 11:31:47;;;;;;;3.37;2.70;;;13.40;99.90;;;;;;5033532;28;20825;-69
2023/05/13 11:34:16;;;;;;;3.20;2.90;;;13.40;99.90;;;;;;5025904;28;20461;-68
2023/05/13 11:36:46;;;;;;;4.73;3.33;;;13.40;99.90;;;;;;5039936;28;20511;-68
2023/05/13 11:39:15;;;;;;;4.10;3.73;;;13.40;99.90;;;;;;5053088;28;21002;-68
2023/05/13 11:41:44;;;;;;;3.43;3.13;;;13.40;99.90;;;;;;5052927;28;20558;-68
2023/05/13 11:44:13;;;;;;;4.00;2.80;;;13.40;99.90;;;;;;5052719;28;20463;-69
2023/05/13 11:46:50;;;;;;;3.20;2.90;;;13.40;99.90;;;;;;5052046;28;20486;-68
2023/05/13 11:49:33;;;;;;;3.23;2.93;;;13.20;99.90;;;;;;5052704;28;20506;-68
2023/05/13 11:52:02;;;;;;;4.03;2.80;;;13.20;99.90;;;;;;5051456;28;20502;-68
2023/05/13 11:54:30;;;;;;;4.50;2.90;;;13.20;99.90;;;;;;5051967;28;20465;-68
2023/05/13 11:56:56;;;;;;;3.03;2.73;;;13.20;99.90;;;;;;5051861;28;20483;-68
2023/05/13 11:59:23;;;;;;;4.93;3.50;;;13.20;99.90;;;;;;5052411;28;20467;-68
2023/05/13 12:02:00;;;;;;;3.50;3.20;;;13.20;99.90;;;;;;5053626;28;20459;-68
2023/05/13 12:04:29;;;;;;;3.33;3.03;;;13.20;99.90;;;;;;5051874;28;20464;-68
2023/05/13 12:06:56;;;;;;;2.80;2.60;;;13.20;99.90;;;;;;5051645;28;20511;-68
2023/05/13 12:09:23;;;;;;;4.90;3.50;;;13.30;99.90;;;;;;5052520;28;20830;-68
2023/05/13 12:11:52;;;;;;;3.63;2.93;;;13.50;99.90;;;;;;5033029;28;20572;-68
2023/05/13 12:14:20;;;;;;;3.10;2.90;;;13.60;99.90;;;;;;5030874;28;21215;-68
2023/05/13 12:16:47;;;;;;;3.40;2.83;;;13.70;99.90;;;;;;5031888;28;20480;-68
2023/05/13 12:19:14;;;;;;;3.50;3.20;;;13.80;99.90;;;;;;5037099;28;20471;-68
2023/05/13 12:21:40;;;;;;;3.40;2.90;;;13.80;99.90;;;;;;5051397;28;20460;-68
2023/05/13 12:24:18;;;;;;;3.33;3.03;;;13.90;99.90;;;;;;5051111;28;20970;-68
2023/05/13 12:26:45;;;;;;;3.10;2.47;;;13.90;99.90;;;;;;5051683;28;20571;-68
2023/05/13 12:29:13;;;;;;;2.70;2.50;;;13.80;99.90;;;;;;5050596;28;20993;-68
2023/05/13 12:31:42;;;;;;;2.83;2.60;;;13.80;99.90;;;;;;5051251;28;20553;-68
2023/05/13 12:34:09;;;;;;;3.73;3.30;;;13.80;99.90;;;;;;5034562;28;20460;-68
2023/05/13 12:36:37;;;;;;;3.07;2.77;;;13.90;99.90;;;;;;5031293;28;20499;-68
2023/05/13 12:39:05;;;;;;;3.73;3.40;;;14.00;99.90;;;;;;5031966;28;20468;-68
2023/05/13 12:41:34;;;;;;;2.50;2.30;;;14.10;99.90;;;;;;5031599;28;20559;-68
2023/05/13 12:44:02;;;;;;;4.27;3.10;;;14.10;99.90;;;;;;5031166;28;20514;-68
2023/05/13 12:46:31;;;;;;;3.37;2.60;;;14.10;99.90;;;;;;5094741;23;20800;-68
2023/05/13 12:48:59;;;;;;;5.57;3.37;;;14.10;99.90;;;;;;5042047;28;20827;-67
2023/05/13 12:51:26;;;;;;;7.10;3.87;;;14.10;99.90;;;;;;5050489;28;20519;-67
2023/05/13 12:53:54;;;;;;;4.47;3.60;;;14.20;99.90;;;;;;5033864;28;20480;-67
2023/05/13 12:56:22;;;;;;;3.63;3.20;;;14.20;99.90;;;;;;5050819;28;20983;-67